createdAt,value
2022-09-22T00:00:15.498Z,3.70
2022-09-22T00:03:05.933Z,3.90
2022-09-22T00:05:36.323Z,4.30
2022-09-22T00:08:06.685Z,4.60
2022-09-22T00:10:37.010Z,4.30
2022-09-22T00:13:07.951Z,3.90
2022-09-22T00:15:38.519Z,4.40
2022-09-22T00:18:08.803Z,4.30
2022-09-22T00:20:41.239Z,4.60
2022-09-22T00:23:11.699Z,4.40
2022-09-22T00:25:43.019Z,4.50
2022-09-22T00:28:13.780Z,4.40
2022-09-22T00:30:44.804Z,4.20
2022-09-22T00:33:15.523Z,3.90
2022-09-22T00:35:45.795Z,4.30
2022-09-22T00:38:16.041Z,4.20
2022-09-22T00:40:46.346Z,4.10
2022-09-22T00:43:21.885Z,3.80
2022-09-22T00:45:56.904Z,4.30
2022-09-22T00:48:28.903Z,4.20
2022-09-22T00:51:02.086Z,3.80
2022-09-22T00:54:12.069Z,3.90
2022-09-22T00:56:58.332Z,4.20
2022-09-22T00:59:28.942Z,4.40
2022-09-22T01:01:59.325Z,4.10
2022-09-22T01:04:31.346Z,4.40
2022-09-22T01:07:03.162Z,4.30
2022-09-22T01:09:34.577Z,5.20
2022-09-22T01:12:06.407Z,4.40
2022-09-22T01:15:11.701Z,5.20
2022-09-22T01:18:13.877Z,4.70
2022-09-22T01:21:13.349Z,4.40
2022-09-22T01:24:02.987Z,4.70
2022-09-22T01:27:00.208Z,6.60
2022-09-22T01:29:45.652Z,5.00
2022-09-22T01:32:34.469Z,4.50
2022-09-22T01:35:16.020Z,5.80
2022-09-22T01:37:52.347Z,7.20
2022-09-22T01:40:31.759Z,6.60
2022-09-22T01:43:30.588Z,5.60
2022-09-22T01:46:03.988Z,4.90
2022-09-22T01:48:37.787Z,4.60
2022-09-22T01:51:15.767Z,3.90
2022-09-22T01:53:56.116Z,4.10
2022-09-22T01:56:29.557Z,3.80
2022-09-22T01:59:05.159Z,4.80
2022-09-22T02:01:41.585Z,4.30
2022-09-22T02:04:21.320Z,5.10
2022-09-22T02:07:11.831Z,5.40
2022-09-22T02:09:44.562Z,5.30
2022-09-22T02:12:18.859Z,5.40
2022-09-22T02:14:49.428Z,4.90
2022-09-22T02:17:20.891Z,4.90
2022-09-22T02:19:52.626Z,3.90
2022-09-22T02:22:23.267Z,3.60
2022-09-22T02:24:56.934Z,3.40
2022-09-22T02:27:36.991Z,3.40
2022-09-22T02:30:11.109Z,3.10
2022-09-22T02:32:49.844Z,3.70
2022-09-22T02:35:23.645Z,3.80
2022-09-22T02:38:20.292Z,3.70
2022-09-22T02:40:59.919Z,4.00
2022-09-22T02:43:43.870Z,4.60
2022-09-22T02:46:19.991Z,4.20
2022-09-22T02:49:02.487Z,4.70
2022-09-22T02:51:33.789Z,4.80
2022-09-22T02:54:04.681Z,4.70
2022-09-22T02:56:35.428Z,4.60
2022-09-22T02:59:09.987Z,4.70
2022-09-22T03:01:40.739Z,5.10
2022-09-22T03:04:10.963Z,5.40
2022-09-22T03:06:41.271Z,5.70
2022-09-22T03:09:13.038Z,6.70
2022-09-22T03:11:43.237Z,7.90
2022-09-22T03:14:13.625Z,7.00
2022-09-22T03:16:43.878Z,6.90
2022-09-22T03:19:14.096Z,6.80
2022-09-22T03:21:44.559Z,7.50
2022-09-22T03:24:15.889Z,8.40
2022-09-22T03:26:46.433Z,8.50
2022-09-22T03:29:16.822Z,9.10
2022-09-22T03:31:47.090Z,9.40
2022-09-22T03:36:49.040Z,9.90
2022-09-22T03:39:19.220Z,8.80
2022-09-22T03:44:20.398Z,7.50
2022-09-22T03:46:54.120Z,8.90
2022-09-22T03:49:25.228Z,9.00
2022-09-22T03:51:55.813Z,8.60
2022-09-22T03:54:26.310Z,8.50
2022-09-22T03:56:56.694Z,8.40
2022-09-22T03:59:27.040Z,7.90
2022-09-22T04:01:58.406Z,7.60
2022-09-22T04:04:28.728Z,6.40
2022-09-22T04:07:02.204Z,6.60
2022-09-22T04:09:36.867Z,7.20
2022-09-22T04:12:07.549Z,6.90
2022-09-22T04:14:38.439Z,6.90
2022-09-22T04:17:09.369Z,6.70
2022-09-22T04:19:40.904Z,6.60
2022-09-22T04:22:11.024Z,6.70
2022-09-22T04:24:41.627Z,5.90
2022-09-22T04:27:20.591Z,6.20
2022-09-22T04:29:51.709Z,6.00
2022-09-22T04:32:24.328Z,6.70
2022-09-22T04:34:54.756Z,8.00
2022-09-22T04:37:24.929Z,9.20
2022-09-22T04:39:56.406Z,9.90
2022-09-22T04:42:26.824Z,9.50
2022-09-22T04:45:02.281Z,7.90
2022-09-22T04:47:32.564Z,6.60
2022-09-22T04:50:02.696Z,6.40
2022-09-22T04:52:32.977Z,6.30
2022-09-22T04:55:03.278Z,6.80
2022-09-22T04:57:33.686Z,6.70
2022-09-22T05:00:04.325Z,7.40
2022-09-22T05:02:36.885Z,8.20
2022-09-22T05:05:07.641Z,7.10
2022-09-22T05:07:37.947Z,7.70
2022-09-22T05:10:08.498Z,8.50
2022-09-22T05:12:48.059Z,8.80
2022-09-22T05:15:18.569Z,9.50
2022-09-22T05:17:52.751Z,10.30
2022-09-22T05:20:23.541Z,9.80
2022-09-22T05:22:55.139Z,9.90
2022-09-22T05:25:25.266Z,9.30
2022-09-22T05:30:29.541Z,8.00
2022-09-22T05:34:10.555Z,8.00
2022-09-22T05:36:41.153Z,7.80
2022-09-22T05:39:11.288Z,7.00
2022-09-22T05:41:41.671Z,7.40
2022-09-22T05:44:12.019Z,8.40
2022-09-22T05:46:42.341Z,8.00
2022-09-22T05:49:12.589Z,7.80
2022-09-22T05:51:43.438Z,7.20
2022-09-22T05:54:14.451Z,8.40
2022-09-22T05:56:44.699Z,8.20
2022-09-22T05:59:16.358Z,8.10
2022-09-22T06:01:46.758Z,8.00
2022-09-22T06:04:17.090Z,8.10
2022-09-22T06:06:48.164Z,7.20
2022-09-22T06:09:18.499Z,7.90
2022-09-22T06:11:48.919Z,7.90
2022-09-22T06:14:19.156Z,8.10
2022-09-22T06:16:49.559Z,8.80
2022-09-22T06:19:19.787Z,9.00
2022-09-22T06:21:50.415Z,9.40
2022-09-22T06:24:20.533Z,9.40
2022-09-22T06:26:54.023Z,9.00
2022-09-22T06:29:24.096Z,8.90
2022-09-22T06:31:54.523Z,9.90
2022-09-22T06:34:26.368Z,9.50
2022-09-22T06:36:58.733Z,9.40
2022-09-22T06:39:29.263Z,10.70
2022-09-22T06:42:01.554Z,11.40
2022-09-22T06:44:32.553Z,11.60
2022-09-22T06:47:08.730Z,10.50
2022-09-22T06:49:39.082Z,10.30
2022-09-22T06:57:13.965Z,12.20
2022-09-22T06:59:44.436Z,12.20
2022-09-22T07:02:15.037Z,12.50
2022-09-22T07:04:45.901Z,10.40
2022-09-22T07:07:16.876Z,10.20
2022-09-22T07:09:47.490Z,10.80
2022-09-22T07:12:18.299Z,10.60
2022-09-22T07:14:49.815Z,11.60
2022-09-22T07:17:20.911Z,11.30
2022-09-22T07:19:51.984Z,10.40
2022-09-22T07:22:22.369Z,9.20
2022-09-22T07:24:52.759Z,8.30
2022-09-22T07:27:26.691Z,7.60
2022-09-22T07:29:57.884Z,8.40
2022-09-22T07:32:32.740Z,7.70
2022-09-22T07:35:03.937Z,7.70
2022-09-22T07:37:36.157Z,7.70
2022-09-22T07:40:06.832Z,7.70
2022-09-22T07:42:37.337Z,7.20
2022-09-22T07:45:16.887Z,6.20
2022-09-22T07:48:04.950Z,6.60
2022-09-22T07:50:35.295Z,6.90
2022-09-22T07:53:05.997Z,7.30
2022-09-22T07:55:38.983Z,8.20
2022-09-22T07:58:11.091Z,7.00
2022-09-22T08:01:17.802Z,7.50
2022-09-22T08:03:48.320Z,6.20
2022-09-22T08:06:23.515Z,6.20
2022-09-22T08:08:57.647Z,6.20
2022-09-22T08:11:30.147Z,6.60
2022-09-22T08:14:05.729Z,6.90
2022-09-22T08:17:14.347Z,7.10
2022-09-22T08:19:48.536Z,6.80
2022-09-22T08:22:20.567Z,6.60
2022-09-22T08:24:50.844Z,5.70
2022-09-22T08:27:21.447Z,5.80
2022-09-22T08:29:51.699Z,6.40
2022-09-22T08:32:22.218Z,5.70
2022-09-22T08:34:52.798Z,6.10
2022-09-22T08:37:23.686Z,5.30
2022-09-22T08:39:54.865Z,5.10
2022-09-22T08:42:26.049Z,5.10
2022-09-22T08:45:10.930Z,4.50
2022-09-22T08:48:09.738Z,4.40
2022-09-22T08:51:03.271Z,4.40
2022-09-22T08:54:39.187Z,4.60
2022-09-22T08:58:00.870Z,4.60
2022-09-22T09:00:42.478Z,4.40
2022-09-22T09:03:56.732Z,4.30
2022-09-22T09:06:42.028Z,3.50
2022-09-22T09:09:23.833Z,3.70
2022-09-22T09:12:02.178Z,3.50
2022-09-22T09:15:03.401Z,3.00
2022-09-22T09:17:39.115Z,3.10
2022-09-22T09:20:26.775Z,2.70
2022-09-22T09:22:58.009Z,2.90
2022-09-22T09:25:53.431Z,4.20
2022-09-22T09:28:42.531Z,3.30
2022-09-22T09:31:32.726Z,2.70
2022-09-22T09:34:09.385Z,2.40
2022-09-22T09:36:53.287Z,1.90
2022-09-22T09:39:33.783Z,2.00
2022-09-22T09:46:57.220Z,1.70
2022-09-22T09:49:27.586Z,1.50
2022-09-22T09:52:00.432Z,1.60
2022-09-22T09:54:31.368Z,1.70
2022-09-22T09:57:14.207Z,1.50
2022-09-22T10:00:03.997Z,1.60
2022-09-22T10:02:52.864Z,1.20
2022-09-22T10:05:27.358Z,1.80
2022-09-22T10:08:17.017Z,1.50
2022-09-22T10:10:48.397Z,1.70
2022-09-22T10:13:42.379Z,1.50
2022-09-22T10:25:48.668Z,1.80
2022-09-22T10:28:21.726Z,1.70
2022-09-22T10:31:04.049Z,1.70
2022-09-22T10:34:13.944Z,1.20
2022-09-22T10:36:59.217Z,1.10
2022-09-22T10:48:55.897Z,1.60
2022-09-22T10:51:40.327Z,1.50
2022-09-22T10:54:26.485Z,1.40
2022-09-22T10:57:09.582Z,1.10
2022-09-22T10:59:55.843Z,1.40
2022-09-22T11:03:04.419Z,1.50
2022-09-22T11:06:14.485Z,1.50
2022-09-22T11:09:24.585Z,1.20
2022-09-22T11:12:32.283Z,1.70
2022-09-22T11:15:23.849Z,1.40
2022-09-22T11:18:09.390Z,1.30
2022-09-22T11:20:47.299Z,1.10
2022-09-22T11:28:37.185Z,1.20
2022-09-22T11:31:08.783Z,1.30
2022-09-22T11:33:57.017Z,1.20
2022-09-22T11:36:39.248Z,1.60
2022-09-22T11:39:26.785Z,1.30
2022-09-22T11:42:26.694Z,1.50
2022-09-22T11:49:24.599Z,1.60
2022-09-22T11:52:31.740Z,1.70
2022-09-22T11:55:14.373Z,1.40
2022-09-22T11:57:49.734Z,1.10
2022-09-22T12:00:22.998Z,1.40
2022-09-22T12:03:02.582Z,1.40
2022-09-22T12:08:18.539Z,1.00
2022-09-22T12:20:58.657Z,1.00
2022-09-22T12:23:39.160Z,0.90
2022-09-22T12:26:15.334Z,1.60
2022-09-22T12:28:47.657Z,0.90
2022-09-22T12:31:20.882Z,0.90
2022-09-22T12:33:54.700Z,1.10
2022-09-22T12:37:16.563Z,0.90
2022-09-22T12:39:50.791Z,0.90
2022-09-22T12:42:21.204Z,1.00
2022-09-22T12:44:59.981Z,0.90
2022-09-22T12:47:37.624Z,1.00
2022-09-22T12:50:30.218Z,1.00
2022-09-22T12:58:32.681Z,0.90
2022-09-22T13:01:35.674Z,0.70
2022-09-22T13:04:22.824Z,1.10
2022-09-22T13:06:55.963Z,0.80
2022-09-22T13:09:28.895Z,0.80
2022-09-22T13:12:15.140Z,0.80
2022-09-22T13:15:03.465Z,1.00
2022-09-22T13:17:42.997Z,0.80
2022-09-22T13:20:43.242Z,0.80
2022-09-22T13:23:58.823Z,1.00
2022-09-22T13:26:36.528Z,1.10
2022-09-22T13:29:17.727Z,17.00
2022-09-22T13:31:51.567Z,2.60
2022-09-22T13:34:27.806Z,1.30
2022-09-22T13:41:14.709Z,1.30
2022-09-22T13:44:54.927Z,1.00
2022-09-22T13:47:28.970Z,1.00
2022-09-22T13:50:26.171Z,0.90
2022-09-22T13:55:55.753Z,0.90
2022-09-22T13:58:37.193Z,0.80
2022-09-22T14:01:25.777Z,0.60
2022-09-22T14:03:57.410Z,1.00
2022-09-22T14:06:32.927Z,1.00
2022-09-22T14:09:04.814Z,1.40
2022-09-22T14:11:35.539Z,1.30
2022-09-22T14:14:08.140Z,2.00
2022-09-22T14:16:59.643Z,2.00
2022-09-22T14:20:10.987Z,2.00
2022-09-22T14:22:45.488Z,3.00
2022-09-22T14:25:23.404Z,2.00
2022-09-22T14:27:58.198Z,1.40
2022-09-22T14:30:31.684Z,2.40
2022-09-22T14:33:05.805Z,1.80
2022-09-22T14:35:38.630Z,1.60
2022-09-22T14:38:15.300Z,1.20
2022-09-22T14:40:57.525Z,1.10
2022-09-22T14:43:35.865Z,1.00
2022-09-22T14:46:25.901Z,1.00
2022-09-22T14:48:58.885Z,0.90
2022-09-22T14:51:32.055Z,0.80
2022-09-22T14:54:09.419Z,1.10
2022-09-22T15:01:45.155Z,0.80
2022-09-22T15:04:27.993Z,1.40
2022-09-22T15:07:10.310Z,1.80
2022-09-22T15:09:47.377Z,1.30
2022-09-22T15:12:47.454Z,1.00
2022-09-22T15:15:29.626Z,1.60
2022-09-22T15:18:22.212Z,2.30
2022-09-22T15:21:13.444Z,2.10
2022-09-22T15:23:56.408Z,2.10
2022-09-22T15:26:35.608Z,3.10
2022-09-22T15:29:17.672Z,4.10
2022-09-22T15:31:54.608Z,8.10
2022-09-22T15:34:32.317Z,3.40
2022-09-22T15:42:10.358Z,1.60
2022-09-22T15:44:46.315Z,1.60
2022-09-22T15:47:27.233Z,3.50
2022-09-22T15:50:01.522Z,3.60
2022-09-22T15:52:34.495Z,3.40
2022-09-22T15:55:09.828Z,3.40
2022-09-22T15:57:44.418Z,3.30
2022-09-22T16:00:26.691Z,1.90
2022-09-22T16:03:01.140Z,2.50
2022-09-22T16:05:34.651Z,2.20
2022-09-22T16:08:09.056Z,1.80
2022-09-22T16:10:40.780Z,1.50
2022-09-22T16:13:15.033Z,2.00
2022-09-22T16:21:10.128Z,1.80
2022-09-22T16:23:42.406Z,2.30
2022-09-22T16:26:13.033Z,1.70
2022-09-22T16:28:43.407Z,1.50
2022-09-22T16:31:21.047Z,1.50
2022-09-22T16:34:06.515Z,1.20
2022-09-22T16:38:10.593Z,1.10
2022-09-22T16:40:49.331Z,1.50
2022-09-22T16:43:23.557Z,1.90
2022-09-22T16:46:13.843Z,1.90
2022-09-22T16:48:47.526Z,2.00
2022-09-22T16:51:36.626Z,2.30
2022-09-22T16:54:14.590Z,2.60
2022-09-22T17:01:58.329Z,2.10
2022-09-22T17:04:34.378Z,1.60
2022-09-22T17:07:06.377Z,2.00
2022-09-22T17:09:41.255Z,2.60
2022-09-22T17:17:09.733Z,2.20
2022-09-22T17:19:43.701Z,2.40
2022-09-22T17:22:26.124Z,2.80
2022-09-22T17:24:59.224Z,2.30
2022-09-22T17:27:32.574Z,2.00
2022-09-22T17:30:05.710Z,2.00
2022-09-22T17:32:53.441Z,2.20
2022-09-22T17:35:28.388Z,2.70
2022-09-22T17:39:17.013Z,2.50
2022-09-22T17:42:10.050Z,2.80
2022-09-22T17:44:44.707Z,2.50
2022-09-22T17:47:32.942Z,2.70
2022-09-22T17:50:19.973Z,3.40
2022-09-22T17:53:18.570Z,3.00
2022-09-22T17:55:51.725Z,3.50
2022-09-22T17:58:29.787Z,3.80
2022-09-22T18:05:42.125Z,3.90
2022-09-22T18:08:23.369Z,3.90
2022-09-22T18:13:36.175Z,4.10
2022-09-22T18:16:33.751Z,4.70
2022-09-22T18:19:11.753Z,3.90
2022-09-22T18:21:45.796Z,3.40
2022-09-22T18:24:21.984Z,3.70
2022-09-22T18:26:53.947Z,3.90
2022-09-22T18:29:28.761Z,3.70
2022-09-22T18:32:04.738Z,4.10
2022-09-22T18:34:39.110Z,4.80
2022-09-22T18:41:45.466Z,4.90
2022-09-22T18:44:19.050Z,4.30
2022-09-22T18:46:52.352Z,4.50
2022-09-22T18:49:23.152Z,4.60
2022-09-22T18:51:54.533Z,4.60
2022-09-22T18:54:24.934Z,5.00
2022-09-22T18:57:10.980Z,6.50
2022-09-22T18:59:44.627Z,8.20
2022-09-22T19:02:16.381Z,6.40
2022-09-22T19:09:21.274Z,4.90
2022-09-22T19:11:54.047Z,5.20
2022-09-22T19:14:39.467Z,4.80
2022-09-22T19:17:12.733Z,5.30
2022-09-22T19:19:50.823Z,5.40
2022-09-22T19:22:31.934Z,5.50
2022-09-22T19:29:40.179Z,7.20
2022-09-22T19:32:13.399Z,7.10
2022-09-22T19:34:44.776Z,8.70
2022-09-22T19:37:18.783Z,6.00
2022-09-22T19:39:53.303Z,4.10
2022-09-22T19:42:30.197Z,4.20
2022-09-22T19:45:14.343Z,4.00
2022-09-22T19:47:50.957Z,4.00
2022-09-22T19:50:37.418Z,3.90
2022-09-22T19:53:14.766Z,4.00
2022-09-22T20:00:26.583Z,4.00
2022-09-22T20:11:26.773Z,4.60
2022-09-22T20:14:15.526Z,7.00
2022-09-22T20:17:06.640Z,4.70
2022-09-22T20:19:39.531Z,4.00
2022-09-22T20:22:30.878Z,4.20
2022-09-22T20:25:05.479Z,4.40
2022-09-22T20:27:38.288Z,4.00
2022-09-22T20:30:09.471Z,3.70
2022-09-22T20:32:47.327Z,4.10
2022-09-22T20:35:19.378Z,4.20
2022-09-22T20:37:49.992Z,4.20
2022-09-22T20:40:23.468Z,4.30
2022-09-22T20:42:55.918Z,4.40
2022-09-22T20:45:26.633Z,4.40
2022-09-22T20:47:57.085Z,4.60
2022-09-22T20:50:27.347Z,3.80
2022-09-22T20:52:57.620Z,4.30
2022-09-22T20:55:27.969Z,4.10
2022-09-22T20:58:05.069Z,4.40
2022-09-22T21:00:35.390Z,5.40
2022-09-22T21:03:06.781Z,5.50
2022-09-22T21:05:37.239Z,5.60
2022-09-22T21:08:24.710Z,5.40
2022-09-22T21:10:57.098Z,5.40
2022-09-22T21:13:27.286Z,4.90
2022-09-22T21:16:07.348Z,4.90
2022-09-22T21:18:39.663Z,5.10
2022-09-22T21:21:09.871Z,5.20
2022-09-22T21:23:39.830Z,4.80
2022-09-22T21:26:12.535Z,4.80
2022-09-22T21:28:42.933Z,4.40
2022-09-22T21:31:15.010Z,4.50
2022-09-22T21:33:45.461Z,4.70
2022-09-22T21:36:18.586Z,4.70
2022-09-22T21:38:51.351Z,4.70
2022-09-22T21:41:23.950Z,5.20
2022-09-22T21:43:55.525Z,5.30
2022-09-22T21:46:29.937Z,4.90
2022-09-22T21:49:04.983Z,5.30
2022-09-22T21:51:41.700Z,6.20
2022-09-22T21:54:18.200Z,6.00
2022-09-22T21:56:48.758Z,6.10
2022-09-22T21:59:19.077Z,6.20
2022-09-22T22:01:49.467Z,6.70
2022-09-22T22:04:19.776Z,7.20
2022-09-22T22:06:50.029Z,7.00
2022-09-22T22:09:28.564Z,7.30
2022-09-22T22:12:00.220Z,6.90
2022-09-22T22:14:33.809Z,7.20
2022-09-22T22:17:04.072Z,6.60
2022-09-22T22:19:34.905Z,6.00
2022-09-22T22:22:07.745Z,5.90
2022-09-22T22:24:41.173Z,7.00
2022-09-22T22:27:14.022Z,6.60
2022-09-22T22:29:44.257Z,6.80
2022-09-22T22:32:14.484Z,6.70
2022-09-22T22:34:44.695Z,7.00
2022-09-22T22:37:14.985Z,6.90
2022-09-22T22:39:45.146Z,7.00
2022-09-22T22:42:15.332Z,8.10
2022-09-22T22:44:45.476Z,7.50
2022-09-22T22:47:15.515Z,6.70
2022-09-22T22:49:45.926Z,6.90
2022-09-22T22:52:16.275Z,6.20
2022-09-22T22:54:46.538Z,5.80
2022-09-22T22:57:16.827Z,6.10
2022-09-22T22:59:47.665Z,6.00
2022-09-22T23:02:17.708Z,6.50
2022-09-22T23:04:47.780Z,6.60
2022-09-22T23:12:19.643Z,7.00
2022-09-22T23:14:49.773Z,7.00
2022-09-22T23:17:19.984Z,7.50
2022-09-22T23:19:50.573Z,7.90
2022-09-22T23:22:21.011Z,7.40
2022-09-22T23:24:51.164Z,7.50
2022-09-22T23:27:21.127Z,7.70
2022-09-22T23:29:51.066Z,8.00
2022-09-22T23:32:20.874Z,7.70
2022-09-22T23:34:50.719Z,7.10
2022-09-22T23:37:20.667Z,7.30
2022-09-22T23:39:51.182Z,7.90
2022-09-22T23:42:21.156Z,7.60
2022-09-22T23:44:51.021Z,7.30
2022-09-22T23:47:20.734Z,7.20
2022-09-22T23:49:50.469Z,7.10
2022-09-22T23:52:22.582Z,7.50
2022-09-22T23:54:52.320Z,7.00
2022-09-22T23:57:22.014Z,7.00
2022-09-22T23:59:52.027Z,7.40
